createdAt,value
2023-03-17T00:01:44.852Z,101116.84
2023-03-17T00:04:12.621Z,101101.97
2023-03-17T00:06:41.440Z,101103.63
2023-03-17T00:09:15.701Z,101091.34
2023-03-17T00:11:43.092Z,101090.38
2023-03-17T00:14:09.947Z,101094.88
2023-03-17T00:16:42.400Z,101100.81
2023-03-17T00:19:33.484Z,101097.22
2023-03-17T00:22:00.908Z,101093.75
2023-03-17T00:24:28.414Z,101101.66
2023-03-17T00:26:55.149Z,101107.59
2023-03-17T00:29:21.818Z,101112.56
2023-03-17T00:31:50.749Z,101108.34
2023-03-17T00:34:18.669Z,101111.66
2023-03-17T00:36:50.581Z,101089.97
2023-03-17T00:39:18.696Z,101081.41
2023-03-17T00:44:14.402Z,101076.72
2023-03-17T00:46:41.625Z,101080.38
2023-03-17T00:49:18.869Z,101068.13
2023-03-17T00:51:46.327Z,101062.16
2023-03-17T00:54:14.443Z,101068.72
2023-03-17T00:56:41.733Z,101045.38
2023-03-17T00:59:29.944Z,101047.91
2023-03-17T01:01:57.064Z,101034.78
2023-03-17T01:04:23.936Z,101048.13
2023-03-17T01:06:51.260Z,101036.78
2023-03-17T01:09:18.583Z,101040.38
2023-03-17T01:11:45.332Z,101038.00
2023-03-17T01:14:12.691Z,101034.59
2023-03-17T01:16:39.690Z,101030.38
2023-03-17T01:19:06.816Z,101031.16
2023-03-17T01:21:33.588Z,101027.78
2023-03-17T01:24:00.439Z,101027.22
2023-03-17T01:26:27.198Z,101016.63
2023-03-17T01:28:53.874Z,101007.97
2023-03-17T01:31:20.745Z,100997.47
2023-03-17T01:33:47.488Z,101001.97
2023-03-17T01:36:14.191Z,100997.88
2023-03-17T01:38:41.509Z,100995.19
2023-03-17T01:41:08.169Z,101001.41
2023-03-17T01:43:34.804Z,100993.59
2023-03-17T01:46:22.742Z,101002.72
2023-03-17T01:49:15.729Z,101000.25
2023-03-17T01:51:51.448Z,100993.41
2023-03-17T01:54:43.992Z,100993.31
2023-03-17T01:57:16.402Z,100984.63
2023-03-17T01:59:55.780Z,100989.72
2023-03-17T02:02:34.943Z,100980.34
2023-03-17T02:05:03.555Z,100961.25
2023-03-17T02:07:30.234Z,100969.06
2023-03-17T02:09:58.070Z,100969.06
2023-03-17T02:12:25.739Z,100973.47
2023-03-17T02:14:54.067Z,100967.31
2023-03-17T02:17:22.976Z,100966.44
2023-03-17T02:19:49.864Z,100956.16
2023-03-17T02:22:18.319Z,100953.44
2023-03-17T02:24:58.537Z,100951.66
2023-03-17T02:27:36.987Z,100944.66
2023-03-17T02:30:06.406Z,100940.38
2023-03-17T02:32:36.175Z,100945.53
2023-03-17T02:35:03.735Z,100938.63
2023-03-17T02:37:30.665Z,100930.94
2023-03-17T02:39:57.299Z,100922.91
2023-03-17T02:42:23.949Z,100922.16
2023-03-17T02:44:50.631Z,100922.25
2023-03-17T02:47:17.421Z,100922.28
2023-03-17T02:49:44.219Z,100924.00
2023-03-17T02:52:11.008Z,100917.91
2023-03-17T02:54:37.998Z,100917.03
2023-03-17T02:57:04.818Z,100919.66
2023-03-17T02:59:31.997Z,100921.44
2023-03-17T03:01:58.683Z,100925.78
2023-03-17T03:04:26.083Z,100931.81
2023-03-17T03:06:53.583Z,100934.53
2023-03-17T03:09:20.413Z,100930.97
2023-03-17T03:11:47.595Z,100925.00
2023-03-17T03:14:14.752Z,100919.72
2023-03-17T03:16:41.445Z,100917.19
2023-03-17T03:19:08.049Z,100918.97
2023-03-17T03:21:34.674Z,100926.00
2023-03-17T03:24:01.298Z,100933.81
2023-03-17T03:26:28.430Z,100948.63
2023-03-17T03:28:57.335Z,100945.13
2023-03-17T03:31:24.467Z,100938.06
2023-03-17T03:33:51.600Z,100941.44
2023-03-17T03:36:18.549Z,100939.78
2023-03-17T03:38:45.280Z,100931.97
2023-03-17T03:41:11.941Z,100937.03
2023-03-17T03:43:38.550Z,100933.69
2023-03-17T03:46:05.515Z,100936.44
2023-03-17T03:48:32.411Z,100932.88
2023-03-17T03:51:00.918Z,100931.25
2023-03-17T03:53:28.230Z,100931.25
2023-03-17T03:55:55.360Z,100932.06
2023-03-17T03:58:22.243Z,100932.84
2023-03-17T04:00:49.094Z,100930.06
2023-03-17T04:03:16.024Z,100922.38
2023-03-17T04:05:42.858Z,100917.97
2023-03-17T04:08:09.514Z,100924.19
2023-03-17T04:10:36.294Z,100920.56
2023-03-17T04:13:03.025Z,100914.47
2023-03-17T04:15:29.650Z,100914.56
2023-03-17T04:17:56.264Z,100918.94
2023-03-17T04:20:23.014Z,100909.25
2023-03-17T04:22:49.830Z,100908.38
2023-03-17T04:25:16.472Z,100910.06
2023-03-17T04:27:43.100Z,100912.59
2023-03-17T04:30:13.804Z,100903.25
2023-03-17T04:32:40.802Z,100901.56
2023-03-17T04:35:09.212Z,100893.63
2023-03-17T04:37:36.186Z,100895.41
2023-03-17T04:40:02.797Z,100896.94
2023-03-17T04:42:32.493Z,100885.63
2023-03-17T04:44:59.408Z,100892.69
2023-03-17T04:47:26.273Z,100885.75
2023-03-17T04:49:52.906Z,100878.78
2023-03-17T04:52:20.223Z,100869.06
2023-03-17T04:54:46.930Z,100891.69
2023-03-17T04:57:13.937Z,100895.19
2023-03-17T04:59:40.566Z,100896.94
2023-03-17T05:02:07.839Z,100896.94
2023-03-17T05:04:34.452Z,100888.06
2023-03-17T05:07:01.273Z,100883.00
2023-03-17T05:09:28.845Z,100885.63
2023-03-17T05:11:55.777Z,100881.25
2023-03-17T05:14:22.558Z,100891.72
2023-03-17T05:16:55.475Z,100885.63
2023-03-17T05:19:23.316Z,100886.25
2023-03-17T05:21:49.927Z,100884.75
2023-03-17T05:24:16.816Z,100876.03
2023-03-17T05:26:43.451Z,100861.25
2023-03-17T05:29:10.656Z,100860.25
2023-03-17T05:31:37.410Z,100867.38
2023-03-17T05:34:04.259Z,100877.84
2023-03-17T05:36:31.377Z,100870.03
2023-03-17T05:38:58.480Z,100858.56
2023-03-17T05:41:25.699Z,100865.66
2023-03-17T05:43:52.329Z,100857.94
2023-03-17T05:46:20.442Z,100856.22
2023-03-17T05:48:47.299Z,100865.78
2023-03-17T05:51:13.958Z,100854.47
2023-03-17T05:53:41.129Z,100857.06
2023-03-17T05:56:08.004Z,100845.84
2023-03-17T05:58:35.051Z,100853.72
2023-03-17T06:01:01.899Z,100857.19
2023-03-17T06:03:28.553Z,100855.56
2023-03-17T06:05:55.172Z,100851.19
2023-03-17T06:08:21.824Z,100857.34
2023-03-17T06:10:48.597Z,100852.13
2023-03-17T06:13:15.549Z,100841.66
2023-03-17T06:15:43.130Z,100842.63
2023-03-17T06:18:12.231Z,100849.69
2023-03-17T06:20:38.851Z,100854.81
2023-03-17T06:23:06.951Z,100848.75
2023-03-17T06:25:34.720Z,100832.38
2023-03-17T06:28:03.879Z,100845.44
2023-03-17T06:30:33.020Z,100844.47
2023-03-17T06:33:01.210Z,100843.72
2023-03-17T06:35:28.674Z,100843.81
2023-03-17T06:37:55.535Z,100850.72
2023-03-17T06:40:22.220Z,100838.59
2023-03-17T06:42:48.853Z,100836.88
2023-03-17T06:45:15.991Z,100836.00
2023-03-17T06:47:42.757Z,100833.47
2023-03-17T06:50:10.192Z,100838.75
2023-03-17T06:52:37.617Z,100846.66
2023-03-17T06:55:05.342Z,100848.47
2023-03-17T06:57:32.473Z,100848.38
2023-03-17T06:59:59.157Z,100846.78
2023-03-17T07:02:26.406Z,100844.31
2023-03-17T07:04:53.492Z,100830.34
2023-03-17T07:07:21.167Z,100836.47
2023-03-17T07:09:48.075Z,100834.06
2023-03-17T07:12:14.850Z,100829.78
2023-03-17T07:14:41.787Z,100828.09
2023-03-17T07:17:12.288Z,100823.84
2023-03-17T07:19:39.519Z,100832.47
2023-03-17T07:22:07.094Z,100829.94
2023-03-17T07:24:33.873Z,100826.53
2023-03-17T07:27:00.561Z,100818.72
2023-03-17T07:29:28.518Z,100803.94
2023-03-17T07:31:55.195Z,100790.91
2023-03-17T07:34:22.245Z,100793.53
2023-03-17T07:36:48.873Z,100784.00
2023-03-17T07:39:15.637Z,100780.59
2023-03-17T07:41:43.992Z,100771.91
2023-03-17T07:44:11.474Z,100765.00
2023-03-17T07:46:39.013Z,100767.66
2023-03-17T07:49:06.325Z,100763.34
2023-03-17T07:51:33.167Z,100779.06
2023-03-17T07:54:04.009Z,100773.03
2023-03-17T07:56:31.636Z,100765.19
2023-03-17T07:58:59.234Z,100757.41
2023-03-17T08:01:26.542Z,100764.44
2023-03-17T08:03:53.291Z,100755.69
2023-03-17T08:06:20.363Z,100753.13
2023-03-17T08:08:47.135Z,100740.00
2023-03-17T08:11:14.309Z,100746.13
2023-03-17T08:13:40.988Z,100745.28
2023-03-17T08:16:08.124Z,100748.75
2023-03-17T08:18:35.051Z,100758.38
2023-03-17T08:21:02.125Z,100761.00
2023-03-17T08:23:28.975Z,100755.78
2023-03-17T08:26:03.333Z,100761.03
2023-03-17T08:28:30.510Z,100739.19
2023-03-17T08:31:12.846Z,100738.31
2023-03-17T08:33:40.873Z,100740.91
2023-03-17T08:36:09.484Z,100743.53
2023-03-17T08:38:37.605Z,100746.13
2023-03-17T08:41:06.775Z,100744.38
2023-03-17T08:43:34.250Z,100739.13
2023-03-17T08:46:07.253Z,100732.09
2023-03-17T08:48:35.423Z,100728.56
2023-03-17T08:51:02.142Z,100732.88
2023-03-17T08:53:29.859Z,100737.25
2023-03-17T08:55:57.350Z,100738.94
2023-03-17T08:58:24.574Z,100727.53
2023-03-17T09:00:52.445Z,100728.31
2023-03-17T09:03:19.174Z,100725.66
2023-03-17T09:05:45.785Z,100722.97
2023-03-17T09:08:13.033Z,100723.78
2023-03-17T09:10:44.092Z,100717.66
2023-03-17T09:13:11.679Z,100718.47
2023-03-17T09:15:38.892Z,100722.78
2023-03-17T09:18:06.770Z,100723.53
2023-03-17T09:20:34.031Z,100712.03
2023-03-17T09:23:01.178Z,100708.38
2023-03-17T09:25:27.796Z,100709.22
2023-03-17T09:27:55.651Z,100700.22
2023-03-17T09:30:22.319Z,100709.00
2023-03-17T09:32:49.240Z,100708.78
2023-03-17T09:35:16.011Z,100698.00
2023-03-17T09:37:42.735Z,100699.47
2023-03-17T09:40:13.605Z,100700.97
2023-03-17T09:43:08.084Z,100692.94
2023-03-17T09:45:42.959Z,100700.50
2023-03-17T09:48:24.663Z,100700.31
2023-03-17T09:50:56.528Z,100702.53
2023-03-17T09:53:34.195Z,100706.81
2023-03-17T09:56:06.106Z,100709.28
2023-03-17T09:58:33.664Z,100703.31
2023-03-17T10:01:01.638Z,100704.00
2023-03-17T10:03:28.275Z,100689.63
2023-03-17T10:06:13.201Z,100688.47
2023-03-17T10:08:48.690Z,100689.81
2023-03-17T10:11:31.437Z,100686.19
2023-03-17T10:14:03.264Z,100690.34
2023-03-17T10:16:53.926Z,100683.44
2023-03-17T10:19:28.579Z,100687.97
2023-03-17T10:22:05.456Z,100688.16
2023-03-17T10:24:33.014Z,100687.28
2023-03-17T10:27:03.782Z,100694.09
2023-03-17T10:29:32.041Z,100694.97
2023-03-17T10:31:58.999Z,100700.00
2023-03-17T10:34:32.331Z,100690.25
2023-03-17T10:37:09.598Z,100696.13
2023-03-17T10:39:47.018Z,100685.41
2023-03-17T10:42:27.152Z,100682.06
2023-03-17T10:44:55.100Z,100678.47
2023-03-17T10:47:38.113Z,100669.50
2023-03-17T10:50:32.132Z,100658.72
2023-03-17T10:53:03.452Z,100645.78
2023-03-17T10:55:38.537Z,100660.41
2023-03-17T10:58:15.836Z,100663.59
2023-03-17T11:01:13.383Z,100656.13
2023-03-17T11:03:40.383Z,100648.50
2023-03-17T11:06:12.212Z,100644.84
2023-03-17T11:08:42.023Z,100641.94
2023-03-17T11:11:26.319Z,100646.38
2023-03-17T11:14:19.565Z,100625.78
2023-03-17T11:16:55.243Z,100623.19
2023-03-17T11:19:31.048Z,100628.06
2023-03-17T11:22:04.929Z,100622.16
2023-03-17T11:24:36.395Z,100620.28
2023-03-17T11:27:12.250Z,100617.63
2023-03-17T11:30:14.865Z,100622.53
2023-03-17T11:32:50.099Z,100621.25
2023-03-17T11:35:38.363Z,100613.59
2023-03-17T11:38:18.974Z,100621.72
2023-03-17T11:41:04.861Z,100610.03
2023-03-17T11:44:06.330Z,100603.41
2023-03-17T11:46:37.245Z,100601.84
2023-03-17T11:49:09.926Z,100595.25
2023-03-17T11:52:03.541Z,100593.66
2023-03-17T11:54:58.971Z,100594.38
2023-03-17T11:57:32.873Z,100593.97
2023-03-17T12:00:04.577Z,100592.53
2023-03-17T12:02:43.787Z,100580.50
2023-03-17T12:05:17.160Z,100583.19
2023-03-17T12:07:48.096Z,100582.03
2023-03-17T12:10:28.791Z,100572.63
2023-03-17T12:12:59.636Z,100571.03
2023-03-17T12:15:41.934Z,100581.41
2023-03-17T12:18:18.662Z,100573.88
2023-03-17T12:20:54.314Z,100564.84
2023-03-17T12:23:42.396Z,100572.47
2023-03-17T12:26:12.811Z,100564.38
2023-03-17T12:28:48.720Z,100564.25
2023-03-17T12:31:26.057Z,100562.69
2023-03-17T12:34:16.933Z,100570.84
2023-03-17T12:36:44.015Z,100553.97
2023-03-17T12:39:16.358Z,100576.63
2023-03-17T12:42:18.664Z,100563.28
2023-03-17T12:44:59.840Z,100563.28
2023-03-17T12:47:50.441Z,100561.38
2023-03-17T12:50:25.976Z,100561.53
2023-03-17T12:53:04.392Z,100553.16
2023-03-17T12:55:33.129Z,100562.94
2023-03-17T12:58:05.841Z,100548.81
2023-03-17T13:00:50.633Z,100547.69
2023-03-17T13:03:23.624Z,100544.94
2023-03-17T13:05:52.878Z,100545.91
2023-03-17T13:08:25.591Z,100534.84
2023-03-17T13:11:18.988Z,100535.72
2023-03-17T13:13:54.821Z,100539.31
2023-03-17T13:16:41.331Z,100529.28
2023-03-17T13:19:18.727Z,100530.13
2023-03-17T13:22:13.237Z,100522.97
2023-03-17T13:24:53.091Z,100523.69
2023-03-17T13:27:42.341Z,100522.78
2023-03-17T13:30:26.250Z,100517.22
2023-03-17T13:32:57.153Z,100518.16
2023-03-17T13:35:46.866Z,100518.00
2023-03-17T13:38:27.140Z,100520.47
2023-03-17T13:41:21.660Z,100524.06
2023-03-17T13:43:57.544Z,100526.06
2023-03-17T13:46:36.595Z,100524.28
2023-03-17T13:49:15.253Z,100528.50
2023-03-17T13:51:52.739Z,100531.25
2023-03-17T13:54:28.748Z,100533.41
2023-03-17T13:56:56.851Z,100535.84
2023-03-17T13:59:55.484Z,100528.91
2023-03-17T14:02:23.908Z,100522.63
2023-03-17T14:04:56.402Z,100526.88
2023-03-17T14:07:25.878Z,100522.31
2023-03-17T14:09:59.105Z,100519.56
2023-03-17T14:12:32.595Z,100529.09
2023-03-17T14:15:16.647Z,100513.72
2023-03-17T14:17:49.970Z,100514.69
2023-03-17T14:20:16.894Z,100512.91
2023-03-17T14:22:46.122Z,100512.91
2023-03-17T14:25:18.557Z,100510.38
2023-03-17T14:27:49.639Z,100508.09
2023-03-17T14:30:19.774Z,100506.34
2023-03-17T14:32:59.953Z,100496.75
2023-03-17T14:35:37.613Z,100501.31
2023-03-17T14:38:16.320Z,100491.34
2023-03-17T14:40:42.933Z,100500.53
2023-03-17T14:43:10.578Z,100485.53
2023-03-17T14:45:48.357Z,100483.09
2023-03-17T14:48:17.657Z,100479.81
2023-03-17T14:50:53.450Z,100477.03
2023-03-17T14:53:22.381Z,100471.16
2023-03-17T14:55:48.986Z,100470.28
2023-03-17T14:58:24.373Z,100466.91
2023-03-17T15:01:03.108Z,100453.09
2023-03-17T15:03:32.994Z,100460.31
2023-03-17T15:06:23.178Z,100457.63
2023-03-17T15:08:50.884Z,100458.91
2023-03-17T15:11:23.946Z,100460.50
2023-03-17T15:13:54.286Z,100456.16
2023-03-17T16:11:20.600Z,100444.28
2023-03-17T16:13:47.656Z,100436.94
2023-03-17T16:16:26.395Z,100438.28
2023-03-17T16:18:53.585Z,100441.84
2023-03-17T16:21:20.661Z,100437.38
2023-03-17T16:23:48.568Z,100436.91
2023-03-17T16:26:17.015Z,100438.81
2023-03-17T16:28:46.176Z,100423.78
2023-03-17T16:31:25.954Z,100424.06
2023-03-17T16:33:55.579Z,100431.28
2023-03-17T16:36:23.763Z,100426.91
2023-03-17T16:38:51.269Z,100430.47
2023-03-17T16:41:21.992Z,100430.78
2023-03-17T16:43:53.581Z,100429.72
2023-03-17T16:46:21.375Z,100438.81
2023-03-17T16:48:49.482Z,100424.69
2023-03-17T16:51:16.377Z,100421.06
2023-03-17T16:53:43.302Z,100428.75
2023-03-17T16:56:16.572Z,100425.84
2023-03-17T16:58:43.622Z,100430.38
2023-03-17T17:01:22.515Z,100424.25
2023-03-17T17:03:49.606Z,100421.19
2023-03-17T17:06:16.688Z,100426.94
2023-03-17T17:08:44.741Z,100421.97
2023-03-17T17:11:14.815Z,100427.94
2023-03-17T17:13:42.273Z,100422.63
2023-03-17T17:16:19.513Z,100417.63
2023-03-17T17:18:47.399Z,100423.16
2023-03-17T17:21:15.352Z,100420.47
2023-03-17T17:23:41.973Z,100425.88
2023-03-17T17:26:08.648Z,100428.59
2023-03-17T17:28:35.284Z,100435.50
2023-03-17T17:31:02.083Z,100436.66
2023-03-17T17:33:28.798Z,100448.28
2023-03-17T17:35:55.759Z,100456.25
2023-03-17T17:38:28.453Z,100457.34
2023-03-17T17:40:57.364Z,100461.97
2023-03-17T17:43:27.392Z,100448.84
2023-03-17T17:45:54.709Z,100465.53
2023-03-17T17:48:23.578Z,100462.88
2023-03-17T17:50:51.801Z,100448.19
2023-03-17T17:53:18.733Z,100449.25
2023-03-17T17:55:47.107Z,100443.06
2023-03-17T17:58:22.866Z,100446.44
2023-03-17T18:00:49.958Z,100440.16
2023-03-17T18:03:17.030Z,100442.97
2023-03-17T18:05:44.337Z,100447.50
2023-03-17T18:08:13.704Z,100439.53
2023-03-17T18:10:40.381Z,100442.03
2023-03-17T18:13:07.045Z,100445.00
2023-03-17T18:15:33.945Z,100452.31
2023-03-17T18:18:00.633Z,100448.16
2023-03-17T18:20:27.654Z,100439.31
2023-03-17T18:22:54.461Z,100436.53
2023-03-17T18:25:21.283Z,100440.09
2023-03-17T18:27:47.919Z,100438.31
2023-03-17T18:30:23.301Z,100435.84
2023-03-17T18:32:51.103Z,100436.63
2023-03-17T18:35:19.961Z,100430.44
2023-03-17T18:37:46.829Z,100431.47
2023-03-17T18:40:17.215Z,100435.25
2023-03-17T18:42:45.704Z,100426.22
2023-03-17T18:45:12.890Z,100421.81
2023-03-17T18:47:41.758Z,100422.84
2023-03-17T18:50:11.423Z,100424.94
2023-03-17T18:52:40.997Z,100417.06
2023-03-17T18:55:09.435Z,100417.78
2023-03-17T18:57:36.741Z,100420.28
2023-03-17T19:00:05.201Z,100418.53
2023-03-17T19:02:31.931Z,100423.59
2023-03-17T19:04:58.540Z,100420.94
2023-03-17T19:07:25.326Z,100421.13
2023-03-17T19:09:51.947Z,100428.28
2023-03-17T19:12:18.796Z,100416.91
2023-03-17T19:14:45.584Z,100422.97
2023-03-17T19:17:12.237Z,100421.13
2023-03-17T19:19:40.579Z,100413.47
2023-03-17T19:22:07.735Z,100413.28
2023-03-17T19:24:35.692Z,100412.56
2023-03-17T19:27:02.310Z,100410.88
2023-03-17T19:29:28.920Z,100397.38
2023-03-17T19:31:55.668Z,100403.75
2023-03-17T19:34:23.276Z,100397.66
2023-03-17T19:36:54.092Z,100395.06
2023-03-17T19:39:21.662Z,100401.16
2023-03-17T19:41:53.348Z,100405.72
2023-03-17T19:44:19.960Z,100399.50
2023-03-17T19:46:46.675Z,100408.44
2023-03-17T19:49:15.227Z,100412.84
2023-03-17T19:51:42.573Z,100418.31
2023-03-17T19:54:11.236Z,100419.03
2023-03-17T19:56:38.756Z,100421.66
2023-03-17T19:59:09.062Z,100422.53
2023-03-17T20:01:38.074Z,100427.19
2023-03-17T20:04:06.912Z,100423.75
2023-03-17T20:06:34.649Z,100424.63
2023-03-17T20:09:04.107Z,100425.50
2023-03-17T20:11:33.912Z,100432.56
2023-03-17T20:14:01.347Z,100426.38
2023-03-17T20:16:28.001Z,100422.28
2023-03-17T20:18:54.628Z,100436.41
2023-03-17T20:21:21.294Z,100429.09
2023-03-17T20:23:47.995Z,100422.94
2023-03-17T20:26:14.660Z,100420.56
2023-03-17T20:28:41.613Z,100419.78
2023-03-17T20:31:09.198Z,100419.75
2023-03-17T20:33:36.096Z,100410.94
2023-03-17T20:36:05.981Z,100410.97
2023-03-17T20:38:36.798Z,100402.38
2023-03-17T20:41:12.712Z,100410.19
2023-03-17T20:43:40.396Z,100411.78
2023-03-17T20:46:09.200Z,100407.69
2023-03-17T20:48:37.130Z,100404.31
2023-03-17T20:51:06.291Z,100414.69
2023-03-17T20:53:34.477Z,100411.22
2023-03-17T20:56:01.132Z,100408.72
2023-03-17T20:58:27.973Z,100408.84
2023-03-17T21:00:55.023Z,100402.63
2023-03-17T21:03:21.824Z,100395.69
2023-03-17T21:05:48.519Z,100393.22
2023-03-17T21:08:15.572Z,100394.03
2023-03-17T21:10:42.163Z,100392.56
2023-03-17T21:13:08.947Z,100389.72
2023-03-17T21:15:36.127Z,100387.97
2023-03-17T21:18:02.845Z,100385.44
2023-03-17T21:20:29.867Z,100395.16
2023-03-17T21:22:56.794Z,100392.59
2023-03-17T21:25:23.532Z,100383.94
2023-03-17T21:27:50.862Z,100384.72
2023-03-17T21:30:17.529Z,100390.88
2023-03-17T21:32:44.179Z,100386.47
2023-03-17T21:35:10.810Z,100384.84
2023-03-17T21:37:37.553Z,100381.38
2023-03-17T21:40:08.218Z,100383.88
2023-03-17T21:42:34.909Z,100383.03
2023-03-17T21:45:01.567Z,100384.75
2023-03-17T21:47:30.021Z,100387.53
2023-03-17T21:49:57.917Z,100390.78
2023-03-17T21:52:26.083Z,100388.38
2023-03-17T21:54:53.328Z,100385.78
2023-03-17T21:57:20.082Z,100383.25
2023-03-17T21:59:49.011Z,100384.91
2023-03-17T22:02:18.695Z,100385.72
2023-03-17T22:04:46.880Z,100383.84
2023-03-17T22:07:13.937Z,100386.50
2023-03-17T22:09:40.542Z,100378.72
2023-03-17T22:12:07.892Z,100375.00
2023-03-17T22:14:35.721Z,100375.22
2023-03-17T22:17:03.195Z,100365.66
2023-03-17T22:19:29.813Z,100366.44
2023-03-17T22:21:56.612Z,100368.13
2023-03-17T22:24:23.430Z,100370.09
2023-03-17T22:26:50.043Z,100369.13
2023-03-17T22:29:16.747Z,100374.44
2023-03-17T22:31:43.419Z,100370.94
2023-03-17T22:34:10.080Z,100376.22
2023-03-17T22:36:37.474Z,100369.09
2023-03-17T22:39:08.713Z,100361.00
2023-03-17T22:41:35.358Z,100360.34
2023-03-17T22:44:02.484Z,100370.88
2023-03-17T22:46:29.156Z,100369.03
2023-03-17T22:48:58.213Z,100360.28
2023-03-17T22:51:26.557Z,100370.78
2023-03-17T22:53:53.386Z,100362.06
2023-03-17T22:56:20.278Z,100355.03
2023-03-17T22:58:47.363Z,100357.66
2023-03-17T23:01:16.464Z,100359.56
2023-03-17T23:03:44.346Z,100359.66
2023-03-17T23:06:11.476Z,100356.06
2023-03-17T23:08:39.177Z,100358.56
2023-03-17T23:11:22.191Z,100359.63
2023-03-17T23:13:49.344Z,100362.16
2023-03-17T23:16:20.245Z,100354.38
2023-03-17T23:18:47.237Z,100361.44
2023-03-17T23:21:27.696Z,100359.69
2023-03-17T23:23:54.727Z,100350.03
2023-03-17T23:26:21.613Z,100363.28
2023-03-17T23:28:49.631Z,100354.59
2023-03-17T23:31:16.861Z,100356.31
2023-03-17T23:33:43.884Z,100352.78
2023-03-17T23:36:11.223Z,100346.56
2023-03-17T23:38:39.987Z,100345.06
2023-03-17T23:41:07.725Z,100344.94
2023-03-17T23:43:34.737Z,100342.16
2023-03-17T23:46:01.718Z,100340.75
2023-03-17T23:48:28.907Z,100339.91
2023-03-17T23:50:55.752Z,100332.75
2023-03-17T23:53:24.156Z,100328.38
2023-03-17T23:55:54.443Z,100326.66
2023-03-17T23:58:21.923Z,100325.75
